sensor_id;sensor_type;location;lat;lon;timestamp;P1;durP1;ratioP1;P2;durP2;ratioP2
64387;SDS011;50709;52.648;4.764;2022-09-01T00:01:32;8.50;;;2.58;;
64387;SDS011;50709;52.648;4.764;2022-09-01T00:03:58;4.25;;;2.45;;
64387;SDS011;50709;52.648;4.764;2022-09-01T00:06:27;5.70;;;2.75;;
64387;SDS011;50709;52.648;4.764;2022-09-01T00:08:55;5.57;;;2.40;;
64387;SDS011;50709;52.648;4.764;2022-09-01T00:11:23;6.03;;;2.70;;
64387;SDS011;50709;52.648;4.764;2022-09-01T00:13:50;3.80;;;2.28;;
64387;SDS011;50709;52.648;4.764;2022-09-01T00:16:17;4.72;;;2.38;;
64387;SDS011;50709;52.648;4.764;2022-09-01T00:18:44;5.15;;;2.53;;
64387;SDS011;50709;52.648;4.764;2022-09-01T00:21:13;5.28;;;2.40;;
64387;SDS011;50709;52.648;4.764;2022-09-01T00:23:40;6.10;;;2.60;;
64387;SDS011;50709;52.648;4.764;2022-09-01T00:26:05;4.15;;;2.25;;
64387;SDS011;50709;52.648;4.764;2022-09-01T00:28:31;6.60;;;2.63;;
64387;SDS011;50709;52.648;4.764;2022-09-01T00:30:58;6.28;;;2.53;;
64387;SDS011;50709;52.648;4.764;2022-09-01T00:33:24;3.50;;;2.47;;
64387;SDS011;50709;52.648;4.764;2022-09-01T00:35:49;5.28;;;2.33;;
64387;SDS011;50709;52.648;4.764;2022-09-01T00:38:15;5.10;;;2.55;;
64387;SDS011;50709;52.648;4.764;2022-09-01T00:40:40;4.30;;;2.55;;
64387;SDS011;50709;52.648;4.764;2022-09-01T00:46:03;5.20;;;2.55;;
64387;SDS011;50709;52.648;4.764;2022-09-01T00:48:30;5.93;;;2.95;;
64387;SDS011;50709;52.648;4.764;2022-09-01T00:50:56;5.50;;;2.40;;
64387;SDS011;50709;52.648;4.764;2022-09-01T00:53:22;6.35;;;2.35;;
64387;SDS011;50709;52.648;4.764;2022-09-01T00:55:48;4.47;;;2.45;;
64387;SDS011;50709;52.648;4.764;2022-09-01T00:58:13;6.18;;;2.58;;
64387;SDS011;50709;52.648;4.764;2022-09-01T01:00:38;4.72;;;2.60;;
64387;SDS011;50709;52.648;4.764;2022-09-01T01:03:08;5.05;;;2.58;;
64387;SDS011;50709;52.648;4.764;2022-09-01T01:05:37;3.80;;;2.50;;
64387;SDS011;50709;52.648;4.764;2022-09-01T01:08:05;5.43;;;2.58;;
64387;SDS011;50709;52.648;4.764;2022-09-01T01:10:35;6.72;;;2.80;;
64387;SDS011;50709;52.648;4.764;2022-09-01T01:13:09;3.80;;;2.53;;
64387;SDS011;50709;52.648;4.764;2022-09-01T01:15:38;5.88;;;2.75;;
64387;SDS011;50709;52.648;4.764;2022-09-01T01:18:10;5.93;;;2.60;;
64387;SDS011;50709;52.648;4.764;2022-09-01T01:20:40;4.60;;;2.70;;
64387;SDS011;50709;52.648;4.764;2022-09-01T01:23:29;3.75;;;2.50;;
64387;SDS011;50709;52.648;4.764;2022-09-01T01:26:04;5.15;;;2.72;;
64387;SDS011;50709;52.648;4.764;2022-09-01T01:28:35;4.85;;;2.95;;
64387;SDS011;50709;52.648;4.764;2022-09-01T01:31:04;5.43;;;2.73;;
64387;SDS011;50709;52.648;4.764;2022-09-01T01:33:40;6.82;;;2.97;;
64387;SDS011;50709;52.648;4.764;2022-09-01T01:36:09;5.73;;;2.70;;
64387;SDS011;50709;52.648;4.764;2022-09-01T01:38:38;8.13;;;3.58;;
64387;SDS011;50709;52.648;4.764;2022-09-01T01:41:06;6.63;;;3.05;;
64387;SDS011;50709;52.648;4.764;2022-09-01T01:43:32;6.85;;;2.78;;
64387;SDS011;50709;52.648;4.764;2022-09-01T01:45:57;5.93;;;3.20;;
64387;SDS011;50709;52.648;4.764;2022-09-01T01:48:27;5.95;;;2.83;;
64387;SDS011;50709;52.648;4.764;2022-09-01T01:50:53;6.55;;;3.17;;
64387;SDS011;50709;52.648;4.764;2022-09-01T01:53:22;6.13;;;3.03;;
64387;SDS011;50709;52.648;4.764;2022-09-01T01:55:47;5.25;;;3.10;;
64387;SDS011;50709;52.648;4.764;2022-09-01T01:58:14;4.30;;;3.03;;
64387;SDS011;50709;52.648;4.764;2022-09-01T02:00:41;6.20;;;3.05;;
64387;SDS011;50709;52.648;4.764;2022-09-01T02:03:08;6.18;;;3.67;;
64387;SDS011;50709;52.648;4.764;2022-09-01T02:05:36;5.30;;;3.08;;
64387;SDS011;50709;52.648;4.764;2022-09-01T02:08:05;6.97;;;4.32;;
64387;SDS011;50709;52.648;4.764;2022-09-01T02:10:38;4.53;;;3.28;;
64387;SDS011;50709;52.648;4.764;2022-09-01T02:13:06;4.57;;;3.22;;
64387;SDS011;50709;52.648;4.764;2022-09-01T02:15:37;7.88;;;4.75;;
64387;SDS011;50709;52.648;4.764;2022-09-01T02:18:10;5.95;;;4.10;;
64387;SDS011;50709;52.648;4.764;2022-09-01T02:20:38;7.20;;;3.78;;
64387;SDS011;50709;52.648;4.764;2022-09-01T02:23:04;9.77;;;4.90;;
64387;SDS011;50709;52.648;4.764;2022-09-01T02:25:35;6.60;;;4.43;;
64387;SDS011;50709;52.648;4.764;2022-09-01T02:28:03;6.43;;;4.18;;
64387;SDS011;50709;52.648;4.764;2022-09-01T02:30:33;7.35;;;4.50;;
64387;SDS011;50709;52.648;4.764;2022-09-01T02:33:01;8.43;;;4.57;;
64387;SDS011;50709;52.648;4.764;2022-09-01T02:35:28;9.85;;;5.20;;
64387;SDS011;50709;52.648;4.764;2022-09-01T02:37:58;8.13;;;4.72;;
64387;SDS011;50709;52.648;4.764;2022-09-01T02:40:25;8.98;;;4.82;;
64387;SDS011;50709;52.648;4.764;2022-09-01T02:42:54;7.32;;;4.80;;
64387;SDS011;50709;52.648;4.764;2022-09-01T02:45:20;6.22;;;4.80;;
64387;SDS011;50709;52.648;4.764;2022-09-01T02:47:48;8.07;;;4.68;;
64387;SDS011;50709;52.648;4.764;2022-09-01T02:50:15;6.25;;;4.13;;
64387;SDS011;50709;52.648;4.764;2022-09-01T02:52:43;5.45;;;3.70;;
64387;SDS011;50709;52.648;4.764;2022-09-01T02:55:10;5.40;;;3.72;;
64387;SDS011;50709;52.648;4.764;2022-09-01T02:57:36;7.15;;;3.75;;
64387;SDS011;50709;52.648;4.764;2022-09-01T03:00:03;7.20;;;3.90;;
64387;SDS011;50709;52.648;4.764;2022-09-01T03:02:45;7.43;;;3.85;;
64387;SDS011;50709;52.648;4.764;2022-09-01T03:05:12;4.28;;;3.20;;
64387;SDS011;50709;52.648;4.764;2022-09-01T03:07:40;5.60;;;3.53;;
64387;SDS011;50709;52.648;4.764;2022-09-01T03:10:06;6.57;;;3.35;;
64387;SDS011;50709;52.648;4.764;2022-09-01T03:12:33;6.10;;;3.50;;
64387;SDS011;50709;52.648;4.764;2022-09-01T03:14:59;5.25;;;3.50;;
64387;SDS011;50709;52.648;4.764;2022-09-01T03:17:24;6.28;;;4.35;;
64387;SDS011;50709;52.648;4.764;2022-09-01T03:19:50;5.30;;;3.50;;
64387;SDS011;50709;52.648;4.764;2022-09-01T03:22:16;6.60;;;3.60;;
64387;SDS011;50709;52.648;4.764;2022-09-01T03:24:42;5.32;;;3.35;;
64387;SDS011;50709;52.648;4.764;2022-09-01T03:27:07;5.30;;;3.47;;
64387;SDS011;50709;52.648;4.764;2022-09-01T03:29:35;5.47;;;3.60;;
64387;SDS011;50709;52.648;4.764;2022-09-01T03:32:02;4.80;;;3.17;;
64387;SDS011;50709;52.648;4.764;2022-09-01T03:34:28;6.30;;;3.25;;
64387;SDS011;50709;52.648;4.764;2022-09-01T03:36:53;5.85;;;3.40;;
64387;SDS011;50709;52.648;4.764;2022-09-01T03:39:20;6.18;;;3.25;;
64387;SDS011;50709;52.648;4.764;2022-09-01T03:41:46;6.93;;;3.85;;
64387;SDS011;50709;52.648;4.764;2022-09-01T03:44:12;5.40;;;3.35;;
64387;SDS011;50709;52.648;4.764;2022-09-01T03:46:39;5.18;;;3.33;;
64387;SDS011;50709;52.648;4.764;2022-09-01T03:49:05;5.25;;;3.17;;
64387;SDS011;50709;52.648;4.764;2022-09-01T03:51:39;6.40;;;3.38;;
64387;SDS011;50709;52.648;4.764;2022-09-01T03:54:06;5.20;;;3.30;;
64387;SDS011;50709;52.648;4.764;2022-09-01T03:56:32;7.50;;;3.33;;
64387;SDS011;50709;52.648;4.764;2022-09-01T03:58:58;5.18;;;3.05;;
64387;SDS011;50709;52.648;4.764;2022-09-01T04:01:24;5.05;;;3.28;;
64387;SDS011;50709;52.648;4.764;2022-09-01T04:03:51;5.13;;;3.22;;
64387;SDS011;50709;52.648;4.764;2022-09-01T04:06:17;5.75;;;4.03;;
64387;SDS011;50709;52.648;4.764;2022-09-01T04:08:44;5.82;;;3.50;;
64387;SDS011;50709;52.648;4.764;2022-09-01T04:11:15;5.05;;;3.50;;
64387;SDS011;50709;52.648;4.764;2022-09-01T04:13:43;5.20;;;3.60;;
64387;SDS011;50709;52.648;4.764;2022-09-01T04:16:19;6.15;;;3.45;;
64387;SDS011;50709;52.648;4.764;2022-09-01T04:19:05;4.97;;;3.58;;
64387;SDS011;50709;52.648;4.764;2022-09-01T04:21:40;5.97;;;3.80;;
64387;SDS011;50709;52.648;4.764;2022-09-01T04:24:07;7.40;;;4.50;;
64387;SDS011;50709;52.648;4.764;2022-09-01T04:26:34;7.25;;;3.92;;
64387;SDS011;50709;52.648;4.764;2022-09-01T04:29:02;6.07;;;3.58;;
64387;SDS011;50709;52.648;4.764;2022-09-01T04:31:27;5.68;;;3.67;;
64387;SDS011;50709;52.648;4.764;2022-09-01T04:33:54;5.80;;;4.07;;
64387;SDS011;50709;52.648;4.764;2022-09-01T04:36:27;5.13;;;3.95;;
64387;SDS011;50709;52.648;4.764;2022-09-01T04:38:56;5.78;;;3.97;;
64387;SDS011;50709;52.648;4.764;2022-09-01T04:41:25;8.00;;;4.65;;
64387;SDS011;50709;52.648;4.764;2022-09-01T04:43:56;7.50;;;4.80;;
64387;SDS011;50709;52.648;4.764;2022-09-01T04:46:23;5.13;;;3.58;;
64387;SDS011;50709;52.648;4.764;2022-09-01T04:48:52;7.88;;;4.72;;
64387;SDS011;50709;52.648;4.764;2022-09-01T04:51:20;7.18;;;5.03;;
64387;SDS011;50709;52.648;4.764;2022-09-01T04:53:46;7.40;;;5.00;;
64387;SDS011;50709;52.648;4.764;2022-09-01T04:56:15;6.45;;;5.03;;
64387;SDS011;50709;52.648;4.764;2022-09-01T04:58:47;8.40;;;5.33;;
64387;SDS011;50709;52.648;4.764;2022-09-01T05:01:14;7.43;;;4.95;;
64387;SDS011;50709;52.648;4.764;2022-09-01T05:03:41;8.80;;;5.47;;
64387;SDS011;50709;52.648;4.764;2022-09-01T05:06:17;7.75;;;5.75;;
64387;SDS011;50709;52.648;4.764;2022-09-01T05:08:44;7.50;;;5.95;;
64387;SDS011;50709;52.648;4.764;2022-09-01T05:11:10;8.48;;;5.85;;
64387;SDS011;50709;52.648;4.764;2022-09-01T05:13:40;9.15;;;5.45;;
64387;SDS011;50709;52.648;4.764;2022-09-01T05:16:07;7.45;;;4.90;;
64387;SDS011;50709;52.648;4.764;2022-09-01T05:18:39;9.40;;;5.50;;
64387;SDS011;50709;52.648;4.764;2022-09-01T05:21:06;8.00;;;4.53;;
64387;SDS011;50709;52.648;4.764;2022-09-01T05:23:38;8.25;;;4.72;;
64387;SDS011;50709;52.648;4.764;2022-09-01T05:26:05;8.40;;;5.30;;
64387;SDS011;50709;52.648;4.764;2022-09-01T05:28:41;6.80;;;4.90;;
64387;SDS011;50709;52.648;4.764;2022-09-01T05:31:07;8.10;;;4.72;;
64387;SDS011;50709;52.648;4.764;2022-09-01T05:33:34;5.95;;;4.68;;
64387;SDS011;50709;52.648;4.764;2022-09-01T05:36:01;7.55;;;5.22;;
64387;SDS011;50709;52.648;4.764;2022-09-01T05:38:32;7.53;;;5.50;;
64387;SDS011;50709;52.648;4.764;2022-09-01T05:41:03;7.28;;;5.63;;
64387;SDS011;50709;52.648;4.764;2022-09-01T05:43:33;8.57;;;6.03;;
64387;SDS011;50709;52.648;4.764;2022-09-01T05:46:00;6.90;;;5.00;;
64387;SDS011;50709;52.648;4.764;2022-09-01T05:48:27;8.32;;;6.00;;
64387;SDS011;50709;52.648;4.764;2022-09-01T05:50:55;8.48;;;6.45;;
64387;SDS011;50709;52.648;4.764;2022-09-01T05:53:23;7.68;;;5.57;;
64387;SDS011;50709;52.648;4.764;2022-09-01T05:55:50;7.72;;;5.07;;
64387;SDS011;50709;52.648;4.764;2022-09-01T05:58:23;7.75;;;4.80;;
64387;SDS011;50709;52.648;4.764;2022-09-01T06:00:51;7.85;;;4.13;;
64387;SDS011;50709;52.648;4.764;2022-09-01T06:03:18;5.07;;;4.10;;
64387;SDS011;50709;52.648;4.764;2022-09-01T06:05:44;5.30;;;3.88;;
64387;SDS011;50709;52.648;4.764;2022-09-01T06:08:12;5.50;;;3.88;;
64387;SDS011;50709;52.648;4.764;2022-09-01T06:10:41;7.65;;;3.90;;
64387;SDS011;50709;52.648;4.764;2022-09-01T06:13:07;5.03;;;3.53;;
64387;SDS011;50709;52.648;4.764;2022-09-01T06:15:34;5.43;;;3.65;;
64387;SDS011;50709;52.648;4.764;2022-09-01T06:18:03;5.40;;;3.70;;
64387;SDS011;50709;52.648;4.764;2022-09-01T06:20:30;4.80;;;3.28;;
64387;SDS011;50709;52.648;4.764;2022-09-01T06:22:55;7.13;;;4.05;;
64387;SDS011;50709;52.648;4.764;2022-09-01T06:25:22;6.40;;;4.05;;
64387;SDS011;50709;52.648;4.764;2022-09-01T06:27:48;5.53;;;3.55;;
64387;SDS011;50709;52.648;4.764;2022-09-01T06:30:14;4.30;;;3.40;;
64387;SDS011;50709;52.648;4.764;2022-09-01T06:32:44;4.07;;;3.10;;
64387;SDS011;50709;52.648;4.764;2022-09-01T06:35:10;3.72;;;2.58;;
64387;SDS011;50709;52.648;4.764;2022-09-01T06:37:37;5.88;;;3.90;;
64387;SDS011;50709;52.648;4.764;2022-09-01T06:40:04;4.70;;;3.40;;
64387;SDS011;50709;52.648;4.764;2022-09-01T06:42:30;5.25;;;3.80;;
64387;SDS011;50709;52.648;4.764;2022-09-01T06:44:59;5.22;;;3.42;;
64387;SDS011;50709;52.648;4.764;2022-09-01T06:47:25;5.80;;;3.78;;
64387;SDS011;50709;52.648;4.764;2022-09-01T06:49:52;4.90;;;3.80;;
64387;SDS011;50709;52.648;4.764;2022-09-01T06:52:22;5.57;;;3.90;;
64387;SDS011;50709;52.648;4.764;2022-09-01T06:54:47;5.57;;;4.43;;
64387;SDS011;50709;52.648;4.764;2022-09-01T06:57:16;4.40;;;3.50;;
64387;SDS011;50709;52.648;4.764;2022-09-01T06:59:41;5.60;;;4.32;;
64387;SDS011;50709;52.648;4.764;2022-09-01T07:02:06;5.55;;;3.88;;
64387;SDS011;50709;52.648;4.764;2022-09-01T07:04:33;5.60;;;3.65;;
64387;SDS011;50709;52.648;4.764;2022-09-01T07:06:58;7.20;;;3.80;;
64387;SDS011;50709;52.648;4.764;2022-09-01T07:09:24;6.22;;;3.65;;
64387;SDS011;50709;52.648;4.764;2022-09-01T07:11:50;4.50;;;3.60;;
64387;SDS011;50709;52.648;4.764;2022-09-01T07:14:16;5.40;;;3.88;;
64387;SDS011;50709;52.648;4.764;2022-09-01T07:16:43;4.82;;;3.55;;
64387;SDS011;50709;52.648;4.764;2022-09-01T07:19:09;6.20;;;3.60;;
64387;SDS011;50709;52.648;4.764;2022-09-01T07:21:37;5.15;;;3.70;;
64387;SDS011;50709;52.648;4.764;2022-09-01T07:24:03;4.30;;;3.45;;
64387;SDS011;50709;52.648;4.764;2022-09-01T07:26:29;6.50;;;3.88;;
64387;SDS011;50709;52.648;4.764;2022-09-01T07:28:55;5.85;;;3.75;;
64387;SDS011;50709;52.648;4.764;2022-09-01T07:31:23;5.63;;;4.03;;
64387;SDS011;50709;52.648;4.764;2022-09-01T07:33:50;5.32;;;3.55;;
64387;SDS011;50709;52.648;4.764;2022-09-01T07:36:18;4.82;;;3.83;;
64387;SDS011;50709;52.648;4.764;2022-09-01T07:38:44;7.68;;;4.03;;
64387;SDS011;50709;52.648;4.764;2022-09-01T07:41:18;5.50;;;3.60;;
64387;SDS011;50709;52.648;4.764;2022-09-01T07:43:49;4.88;;;3.70;;
64387;SDS011;50709;52.648;4.764;2022-09-01T07:46:19;4.90;;;3.72;;
64387;SDS011;50709;52.648;4.764;2022-09-01T07:48:47;5.60;;;3.60;;
64387;SDS011;50709;52.648;4.764;2022-09-01T07:51:14;5.00;;;3.40;;
64387;SDS011;50709;52.648;4.764;2022-09-01T07:53:43;7.47;;;3.78;;
64387;SDS011;50709;52.648;4.764;2022-09-01T07:56:09;6.25;;;3.15;;
64387;SDS011;50709;52.648;4.764;2022-09-01T07:58:37;5.65;;;3.13;;
64387;SDS011;50709;52.648;4.764;2022-09-01T08:01:07;6.00;;;3.60;;
64387;SDS011;50709;52.648;4.764;2022-09-01T08:03:34;5.00;;;3.33;;
64387;SDS011;50709;52.648;4.764;2022-09-01T08:06:07;5.90;;;3.65;;
64387;SDS011;50709;52.648;4.764;2022-09-01T08:08:34;5.95;;;3.10;;
64387;SDS011;50709;52.648;4.764;2022-09-01T08:11:00;4.47;;;3.10;;
64387;SDS011;50709;52.648;4.764;2022-09-01T08:13:26;6.53;;;3.47;;
64387;SDS011;50709;52.648;4.764;2022-09-01T08:15:52;4.05;;;3.00;;
64387;SDS011;50709;52.648;4.764;2022-09-01T08:18:17;4.47;;;3.00;;
64387;SDS011;50709;52.648;4.764;2022-09-01T08:20:43;9.68;;;3.05;;
64387;SDS011;50709;52.648;4.764;2022-09-01T08:23:10;6.03;;;3.10;;
64387;SDS011;50709;52.648;4.764;2022-09-01T08:25:37;4.97;;;3.10;;
64387;SDS011;50709;52.648;4.764;2022-09-01T08:28:04;4.00;;;3.13;;
64387;SDS011;50709;52.648;4.764;2022-09-01T08:30:30;7.82;;;3.15;;
64387;SDS011;50709;52.648;4.764;2022-09-01T08:32:56;7.53;;;4.22;;
64387;SDS011;50709;52.648;4.764;2022-09-01T08:35:22;5.18;;;3.22;;
64387;SDS011;50709;52.648;4.764;2022-09-01T08:37:47;5.47;;;3.13;;
64387;SDS011;50709;52.648;4.764;2022-09-01T08:40:14;5.57;;;3.00;;
64387;SDS011;50709;52.648;4.764;2022-09-01T08:48:29;4.28;;;2.88;;
64387;SDS011;50709;52.648;4.764;2022-09-01T08:51:06;3.88;;;2.85;;
64387;SDS011;50709;52.648;4.764;2022-09-01T08:54:05;5.22;;;2.60;;
64387;SDS011;50709;52.648;4.764;2022-09-01T08:56:39;4.03;;;2.50;;
64387;SDS011;50709;52.648;4.764;2022-09-01T08:59:05;3.70;;;2.80;;
64387;SDS011;50709;52.648;4.764;2022-09-01T09:01:42;4.32;;;2.95;;
64387;SDS011;50709;52.648;4.764;2022-09-01T09:07:09;4.63;;;2.80;;
64387;SDS011;50709;52.648;4.764;2022-09-01T09:09:46;4.70;;;2.75;;
64387;SDS011;50709;52.648;4.764;2022-09-01T09:15:31;4.95;;;2.83;;
64387;SDS011;50709;52.648;4.764;2022-09-01T09:18:12;3.30;;;2.45;;
64387;SDS011;50709;52.648;4.764;2022-09-01T09:20:38;5.00;;;2.55;;
64387;SDS011;50709;52.648;4.764;2022-09-01T09:23:08;4.10;;;2.53;;
64387;SDS011;50709;52.648;4.764;2022-09-01T09:25:46;3.38;;;2.30;;
64387;SDS011;50709;52.648;4.764;2022-09-01T09:28:11;5.68;;;2.45;;
64387;SDS011;50709;52.648;4.764;2022-09-01T09:30:36;4.55;;;2.60;;
64387;SDS011;50709;52.648;4.764;2022-09-01T09:33:03;3.33;;;2.45;;
64387;SDS011;50709;52.648;4.764;2022-09-01T09:35:48;3.40;;;2.33;;
64387;SDS011;50709;52.648;4.764;2022-09-01T09:40:58;4.40;;;2.53;;
64387;SDS011;50709;52.648;4.764;2022-09-01T09:43:28;5.85;;;2.78;;
64387;SDS011;50709;52.648;4.764;2022-09-01T09:51:45;5.40;;;2.60;;
64387;SDS011;50709;52.648;4.764;2022-09-01T09:54:29;3.78;;;2.40;;
64387;SDS011;50709;52.648;4.764;2022-09-01T09:59:45;4.72;;;2.25;;
64387;SDS011;50709;52.648;4.764;2022-09-01T10:02:18;2.35;;;1.95;;
64387;SDS011;50709;52.648;4.764;2022-09-01T10:04:56;2.70;;;2.10;;
64387;SDS011;50709;52.648;4.764;2022-09-01T10:10:00;3.65;;;2.30;;
64387;SDS011;50709;52.648;4.764;2022-09-01T10:12:29;4.40;;;2.20;;
64387;SDS011;50709;52.648;4.764;2022-09-01T10:45:54;4.63;;;2.53;;
64387;SDS011;50709;52.648;4.764;2022-09-01T10:50:45;3.03;;;2.00;;
64387;SDS011;50709;52.648;4.764;2022-09-01T10:56:04;3.15;;;2.03;;
64387;SDS011;50709;52.648;4.764;2022-09-01T11:01:36;3.97;;;1.90;;
64387;SDS011;50709;52.648;4.764;2022-09-01T11:04:03;3.20;;;1.85;;
64387;SDS011;50709;52.648;4.764;2022-09-01T11:06:41;2.47;;;2.00;;
64387;SDS011;50709;52.648;4.764;2022-09-01T11:09:28;3.88;;;1.88;;
64387;SDS011;50709;52.648;4.764;2022-09-01T11:12:04;2.92;;;1.92;;
64387;SDS011;50709;52.648;4.764;2022-09-01T11:14:34;3.50;;;2.00;;
64387;SDS011;50709;52.648;4.764;2022-09-01T11:19:59;5.95;;;2.20;;
64387;SDS011;50709;52.648;4.764;2022-09-01T11:22:42;4.72;;;2.20;;
64387;SDS011;50709;52.648;4.764;2022-09-01T11:25:12;4.63;;;2.38;;
64387;SDS011;50709;52.648;4.764;2022-09-01T11:30:43;3.50;;;2.10;;
64387;SDS011;50709;52.648;4.764;2022-09-01T11:33:28;2.42;;;1.85;;
64387;SDS011;50709;52.648;4.764;2022-09-01T11:39:01;3.50;;;1.90;;
64387;SDS011;50709;52.648;4.764;2022-09-01T11:44:25;2.67;;;2.17;;
64387;SDS011;50709;52.648;4.764;2022-09-01T11:46:58;5.13;;;2.40;;
64387;SDS011;50709;52.648;4.764;2022-09-01T11:49:34;3.28;;;2.05;;
64387;SDS011;50709;52.648;4.764;2022-09-01T11:52:03;2.33;;;1.85;;
64387;SDS011;50709;52.648;4.764;2022-09-01T11:54:36;2.83;;;1.90;;
64387;SDS011;50709;52.648;4.764;2022-09-01T11:57:19;3.35;;;1.95;;
64387;SDS011;50709;52.648;4.764;2022-09-01T11:59:47;2.97;;;1.80;;
64387;SDS011;50709;52.648;4.764;2022-09-01T12:02:32;4.60;;;2.10;;
64387;SDS011;50709;52.648;4.764;2022-09-01T12:05:00;2.10;;;1.65;;
64387;SDS011;50709;52.648;4.764;2022-09-01T12:07:41;3.97;;;2.10;;
64387;SDS011;50709;52.648;4.764;2022-09-01T12:10:16;2.50;;;1.75;;
64387;SDS011;50709;52.648;4.764;2022-09-01T12:12:45;1.80;;;1.60;;
64387;SDS011;50709;52.648;4.764;2022-09-01T12:17:50;3.40;;;1.95;;
64387;SDS011;50709;52.648;4.764;2022-09-01T12:20:21;3.00;;;1.80;;
64387;SDS011;50709;52.648;4.764;2022-09-01T12:22:50;4.93;;;2.75;;
64387;SDS011;50709;52.648;4.764;2022-09-01T12:25:33;1.73;;;1.52;;
64387;SDS011;50709;52.648;4.764;2022-09-01T12:27:59;2.80;;;1.80;;
64387;SDS011;50709;52.648;4.764;2022-09-01T12:30:26;2.63;;;1.67;;
64387;SDS011;50709;52.648;4.764;2022-09-01T12:32:53;2.88;;;1.90;;
64387;SDS011;50709;52.648;4.764;2022-09-01T12:35:21;4.68;;;2.00;;
64387;SDS011;50709;52.648;4.764;2022-09-01T12:37:48;2.65;;;2.00;;
64387;SDS011;50709;52.648;4.764;2022-09-01T12:40:23;5.53;;;1.70;;
64387;SDS011;50709;52.648;4.764;2022-09-01T12:42:59;2.33;;;1.92;;
64387;SDS011;50709;52.648;4.764;2022-09-01T12:45:44;2.90;;;1.80;;
64387;SDS011;50709;52.648;4.764;2022-09-01T12:51:19;4.47;;;1.75;;
64387;SDS011;50709;52.648;4.764;2022-09-01T12:53:54;3.30;;;1.80;;
64387;SDS011;50709;52.648;4.764;2022-09-01T12:59:04;3.78;;;1.88;;
64387;SDS011;50709;52.648;4.764;2022-09-01T13:01:38;2.25;;;1.75;;
64387;SDS011;50709;52.648;4.764;2022-09-01T13:04:13;4.22;;;2.15;;
64387;SDS011;50709;52.648;4.764;2022-09-01T13:06:45;3.83;;;2.03;;
64387;SDS011;50709;52.648;4.764;2022-09-01T13:09:10;4.35;;;2.20;;
64387;SDS011;50709;52.648;4.764;2022-09-01T13:11:36;4.18;;;2.03;;
64387;SDS011;50709;52.648;4.764;2022-09-01T13:14:01;4.88;;;2.00;;
64387;SDS011;50709;52.648;4.764;2022-09-01T13:16:27;3.17;;;1.92;;
64387;SDS011;50709;52.648;4.764;2022-09-01T13:18:52;3.03;;;1.90;;
64387;SDS011;50709;52.648;4.764;2022-09-01T13:21:18;2.53;;;2.03;;
64387;SDS011;50709;52.648;4.764;2022-09-01T13:23:43;4.43;;;2.22;;
64387;SDS011;50709;52.648;4.764;2022-09-01T13:26:10;3.67;;;1.90;;
64387;SDS011;50709;52.648;4.764;2022-09-01T13:28:36;5.85;;;2.53;;
64387;SDS011;50709;52.648;4.764;2022-09-01T13:31:02;4.40;;;2.10;;
64387;SDS011;50709;52.648;4.764;2022-09-01T13:33:30;3.75;;;2.10;;
64387;SDS011;50709;52.648;4.764;2022-09-01T13:35:57;4.80;;;2.30;;
64387;SDS011;50709;52.648;4.764;2022-09-01T13:38:23;3.85;;;2.20;;
64387;SDS011;50709;52.648;4.764;2022-09-01T13:40:48;3.78;;;2.20;;
64387;SDS011;50709;52.648;4.764;2022-09-01T13:43:15;4.25;;;2.20;;
64387;SDS011;50709;52.648;4.764;2022-09-01T13:45:43;4.80;;;2.25;;
64387;SDS011;50709;52.648;4.764;2022-09-01T13:48:09;4.30;;;2.05;;
64387;SDS011;50709;52.648;4.764;2022-09-01T13:50:35;3.53;;;2.00;;
64387;SDS011;50709;52.648;4.764;2022-09-01T13:53:02;4.18;;;2.30;;
64387;SDS011;50709;52.648;4.764;2022-09-01T13:55:30;4.35;;;2.00;;
64387;SDS011;50709;52.648;4.764;2022-09-01T13:57:56;3.42;;;1.90;;
64387;SDS011;50709;52.648;4.764;2022-09-01T14:00:24;3.33;;;2.20;;
64387;SDS011;50709;52.648;4.764;2022-09-01T14:02:54;2.67;;;1.90;;
64387;SDS011;50709;52.648;4.764;2022-09-01T14:08:53;3.20;;;2.13;;
64387;SDS011;50709;52.648;4.764;2022-09-01T14:11:18;6.00;;;2.13;;
64387;SDS011;50709;52.648;4.764;2022-09-01T14:13:44;3.75;;;1.98;;
64387;SDS011;50709;52.648;4.764;2022-09-01T14:34:28;3.67;;;2.40;;
64387;SDS011;50709;52.648;4.764;2022-09-01T14:36:55;2.75;;;2.10;;
64387;SDS011;50709;52.648;4.764;2022-09-01T14:39:22;4.00;;;2.10;;
64387;SDS011;50709;52.648;4.764;2022-09-01T14:41:48;4.13;;;2.00;;
64387;SDS011;50709;52.648;4.764;2022-09-01T14:44:13;4.88;;;2.10;;
64387;SDS011;50709;52.648;4.764;2022-09-01T14:46:38;3.00;;;2.00;;
64387;SDS011;50709;52.648;4.764;2022-09-01T14:49:04;3.70;;;2.22;;
64387;SDS011;50709;52.648;4.764;2022-09-01T14:51:31;3.03;;;2.17;;
64387;SDS011;50709;52.648;4.764;2022-09-01T14:53:57;3.80;;;2.08;;
64387;SDS011;50709;52.648;4.764;2022-09-01T14:56:22;3.17;;;2.22;;
64387;SDS011;50709;52.648;4.764;2022-09-01T14:58:49;4.63;;;2.25;;
64387;SDS011;50709;52.648;4.764;2022-09-01T15:01:16;3.10;;;2.25;;
64387;SDS011;50709;52.648;4.764;2022-09-01T15:03:44;3.60;;;2.42;;
64387;SDS011;50709;52.648;4.764;2022-09-01T15:06:11;4.38;;;2.10;;
64387;SDS011;50709;52.648;4.764;2022-09-01T15:08:38;2.72;;;2.10;;
64387;SDS011;50709;52.648;4.764;2022-09-01T15:11:10;4.68;;;2.20;;
64387;SDS011;50709;52.648;4.764;2022-09-01T15:13:39;3.55;;;2.20;;
64387;SDS011;50709;52.648;4.764;2022-09-01T15:16:11;3.17;;;2.25;;
64387;SDS011;50709;52.648;4.764;2022-09-01T15:21:03;5.00;;;2.20;;
64387;SDS011;50709;52.648;4.764;2022-09-01T15:23:29;3.15;;;2.13;;
64387;SDS011;50709;52.648;4.764;2022-09-01T15:25:54;4.05;;;2.22;;
64387;SDS011;50709;52.648;4.764;2022-09-01T15:28:22;3.50;;;2.40;;
64387;SDS011;50709;52.648;4.764;2022-09-01T15:30:48;2.88;;;2.15;;
64387;SDS011;50709;52.648;4.764;2022-09-01T15:33:15;2.78;;;2.20;;
64387;SDS011;50709;52.648;4.764;2022-09-01T15:35:41;2.92;;;2.10;;
64387;SDS011;50709;52.648;4.764;2022-09-01T15:38:06;3.28;;;2.10;;
64387;SDS011;50709;52.648;4.764;2022-09-01T15:40:32;2.92;;;2.13;;
64387;SDS011;50709;52.648;4.764;2022-09-01T15:42:58;4.07;;;2.35;;
64387;SDS011;50709;52.648;4.764;2022-09-01T15:45:25;3.40;;;2.05;;
64387;SDS011;50709;52.648;4.764;2022-09-01T15:47:52;2.50;;;2.00;;
64387;SDS011;50709;52.648;4.764;2022-09-01T15:50:20;3.70;;;2.10;;
64387;SDS011;50709;52.648;4.764;2022-09-01T15:53:00;4.10;;;2.08;;
64387;SDS011;50709;52.648;4.764;2022-09-01T15:55:31;3.88;;;2.30;;
64387;SDS011;50709;52.648;4.764;2022-09-01T15:58:05;3.83;;;2.20;;
64387;SDS011;50709;52.648;4.764;2022-09-01T16:00:31;2.83;;;2.03;;
64387;SDS011;50709;52.648;4.764;2022-09-01T16:02:58;5.05;;;2.10;;
64387;SDS011;50709;52.648;4.764;2022-09-01T16:05:25;4.20;;;2.10;;
64387;SDS011;50709;52.648;4.764;2022-09-01T16:07:51;2.97;;;2.25;;
64387;SDS011;50709;52.648;4.764;2022-09-01T16:10:18;2.75;;;1.90;;
64387;SDS011;50709;52.648;4.764;2022-09-01T16:12:43;3.95;;;2.20;;
64387;SDS011;50709;52.648;4.764;2022-09-01T16:15:13;5.22;;;2.20;;
64387;SDS011;50709;52.648;4.764;2022-09-01T16:23:17;4.97;;;2.97;;
64387;SDS011;50709;52.648;4.764;2022-09-01T16:25:44;5.43;;;2.40;;
64387;SDS011;50709;52.648;4.764;2022-09-01T16:30:44;3.83;;;2.33;;
64387;SDS011;50709;52.648;4.764;2022-09-01T16:33:12;3.28;;;2.22;;
64387;SDS011;50709;52.648;4.764;2022-09-01T16:35:53;2.97;;;2.13;;
64387;SDS011;50709;52.648;4.764;2022-09-01T16:38:52;2.95;;;1.88;;
64387;SDS011;50709;52.648;4.764;2022-09-01T16:47:20;5.50;;;3.33;;
64387;SDS011;50709;52.648;4.764;2022-09-01T16:52:42;2.63;;;2.10;;
64387;SDS011;50709;52.648;4.764;2022-09-01T16:58:23;5.78;;;2.30;;
64387;SDS011;50709;52.648;4.764;2022-09-01T17:03:42;4.85;;;2.20;;
64387;SDS011;50709;52.648;4.764;2022-09-01T17:06:26;3.17;;;2.10;;
64387;SDS011;50709;52.648;4.764;2022-09-01T17:09:02;5.15;;;2.22;;
64387;SDS011;50709;52.648;4.764;2022-09-01T17:11:39;3.97;;;2.33;;
64387;SDS011;50709;52.648;4.764;2022-09-01T17:14:27;4.18;;;2.40;;